Time;durP1;ratioP1;P1;durP2;ratioP2;P2;SDS_P1;SDS_P2;PMS_P1;PMS_P2;Temp;Humidity;BMP_temperature;BMP_pressure;BME280_temperature;BME280_humidity;BME280_pressure;Samples;Min_cycle;Max_cycle;Signal;HPM_P1;HPM_P2
2021/08/01 07:01:56;;;;;;;7.68;3.38;;;;;;;15.57;98.49;98197.34;5219191;23;20426;-72
2021/08/01 07:04:21;;;;;;;6.32;3.60;;;;;;;15.56;96.82;98206.09;4908432;29;20036;-73
2021/08/01 07:06:47;;;;;;;5.13;3.80;;;;;;;15.46;97.00;98216.13;4916440;29;20024;-73
2021/08/01 07:09:12;;;;;;;9.30;3.50;;;;;;;15.82;98.16;98212.75;4916173;29;20081;-72
2021/08/01 07:11:37;;;;;;;4.25;3.85;;;;;;;15.78;97.23;98212.03;4914987;29;20024;-72
2021/08/01 07:14:03;;;;;;;4.38;3.42;;;;;;;15.85;98.30;98212.59;4975100;23;20039;-71
2021/08/01 07:16:28;;;;;;;5.68;3.55;;;;;;;15.99;97.23;98207.53;4935393;29;20030;-73
2021/08/01 07:18:53;;;;;;;5.40;3.65;;;;;;;16.05;96.37;98212.47;4935214;29;20023;-73
2021/08/01 07:21:18;;;;;;;5.70;3.78;;;;;;;16.15;96.84;98210.25;4934888;29;20496;-73
2021/08/01 07:23:44;;;;;;;6.50;3.42;;;;;;;15.98;95.45;98213.69;4935008;29;20055;-71
2021/08/01 07:26:09;;;;;;;4.63;3.65;;;;;;;16.04;96.73;98218.59;4935205;29;20045;-71
2021/08/01 07:28:35;;;;;;;4.45;3.40;;;;;;;16.23;94.55;98218.53;4934597;29;20499;-69
2021/08/01 07:31:01;;;;;;;5.50;3.58;;;;;;;16.16;97.18;98207.56;4934992;29;20028;-69
2021/08/01 07:33:26;;;;;;;5.13;3.70;;;;;;;16.12;95.73;98208.63;4934673;29;20103;-69
2021/08/01 07:35:51;;;;;;;4.63;4.18;;;;;;;16.07;95.52;98215.84;4934790;29;20541;-69
2021/08/01 07:38:17;;;;;;;6.60;3.85;;;;;;;15.98;97.43;98226.75;4934867;29;20051;-69
2021/08/01 07:40:42;;;;;;;5.40;3.88;;;;;;;15.89;96.63;98225.44;4934896;29;20027;-69
2021/08/01 07:43:07;;;;;;;6.65;4.35;;;;;;;15.83;98.21;98235.34;4934690;29;20091;-72
2021/08/01 07:45:34;;;;;;;6.72;4.45;;;;;;;15.74;97.05;98235.78;4934750;29;20102;-71
2021/08/01 07:48:00;;;;;;;6.47;4.28;;;;;;;15.85;99.10;98233.47;4933642;29;20370;-71
2021/08/01 07:50:27;;;;;;;7.32;4.47;;;;;;;15.87;99.98;98221.22;4934738;29;20027;-71
2021/08/01 07:52:52;;;;;;;6.63;3.95;;;;;;;16.01;99.46;98229.22;4934464;29;20028;-71
2021/08/01 07:55:18;;;;;;;6.68;4.47;;;;;;;16.21;98.13;98222.16;4934645;29;20078;-71
2021/08/01 07:57:44;;;;;;;10.07;4.47;;;;;;;16.17;100.00;98224.94;4934769;29;20027;-71
2021/08/01 08:00:11;;;;;;;4.72;4.25;;;;;;;16.21;100.00;98220.41;4934613;29;20481;-72
2021/08/01 08:02:37;;;;;;;6.47;3.90;;;;;;;16.40;98.08;98225.56;4934489;29;20020;-71
2021/08/01 08:05:02;;;;;;;5.88;3.70;;;;;;;16.34;96.64;98226.72;4933187;29;20331;-71
2021/08/01 08:07:28;;;;;;;4.35;3.70;;;;;;;16.37;98.62;98228.31;4932698;29;20107;-71
2021/08/01 08:09:53;;;;;;;5.38;3.67;;;;;;;16.61;96.01;98232.31;4933055;29;20032;-73
2021/08/01 08:12:18;;;;;;;5.20;3.55;;;;;;;16.50;96.16;98221.53;4932495;29;20034;-73
2021/08/01 08:14:44;;;;;;;7.70;3.67;;;;;;;16.87;93.42;98230.13;4932694;29;20111;-73
2021/08/01 08:17:10;;;;;;;12.05;3.72;;;;;;;16.64;90.56;98237.38;4932761;29;20083;-73
2021/08/01 08:19:35;;;;;;;5.07;3.30;;;;;;;16.74;88.96;98224.72;4933253;29;20031;-74
2021/08/01 08:22:01;;;;;;;5.43;3.60;;;;;;;16.84;91.66;98230.31;4934232;29;20023;-71
2021/08/01 08:24:27;;;;;;;6.80;3.80;;;;;;;17.08;92.09;98233.41;4934490;29;20489;-71
2021/08/01 08:26:53;;;;;;;7.22;3.60;;;;;;;16.79;88.54;98235.78;4934503;29;20503;-71
2021/08/01 08:29:19;;;;;;;5.45;3.45;;;;;;;17.01;89.63;98238.09;4934482;29;20024;-72
2021/08/01 08:31:50;;;;;;;3.58;2.92;;;;;;;17.33;89.97;98243.41;4934321;29;20027;-71
2021/08/01 08:34:16;;;;;;;5.85;3.40;;;;;;;17.38;87.51;98244.00;4934162;29;20039;-71
2021/08/01 08:36:42;;;;;;;4.63;3.70;;;;;;;17.11;89.98;98239.31;4934396;29;20030;-71
2021/08/01 08:39:08;;;;;;;5.43;3.30;;;;;;;16.99;88.64;98239.97;4934505;29;20050;-71
2021/08/01 08:41:33;;;;;;;5.28;3.60;;;;;;;16.81;91.80;98238.31;4936136;29;20477;-72
2021/08/01 08:43:59;;;;;;;7.45;3.78;;;;;;;17.09;93.17;98233.31;4937809;29;20054;-73
2021/08/01 08:46:26;;;;;;;4.88;3.72;;;;;;;17.07;89.61;98237.81;4937938;29;20503;-73
2021/08/01 08:48:54;;;;;;;4.53;2.95;;;;;;;17.22;91.92;98228.28;4910937;28;20399;-73
2021/08/01 08:51:24;;;;;;;4.15;3.47;;;;;;;17.38;90.16;98236.16;4929875;29;20032;-73
2021/08/01 08:53:53;;;;;;;4.78;3.85;;;;;;;17.64;90.70;98243.41;4918683;29;20115;-73
2021/08/01 08:56:18;;;;;;;4.13;3.45;;;;;;;17.47;88.04;98240.88;4918837;29;20028;-73
2021/08/01 08:58:49;;;;;;;6.88;3.47;;;;;;;17.71;88.95;98249.19;4918847;29;20054;-71
2021/08/01 09:01:14;;;;;;;5.53;4.22;;;;;;;17.70;85.13;98250.94;4918590;29;20115;-70
2021/08/01 09:03:39;;;;;;;4.50;3.40;;;;;;;17.87;83.88;98249.19;4935320;29;20164;-70
2021/08/01 09:06:04;;;;;;;5.68;3.40;;;;;;;17.92;83.47;98247.16;4937550;29;20028;-69
2021/08/01 09:08:30;;;;;;;9.98;3.40;;;;;;;17.78;82.70;98250.53;4937491;29;20024;-69
2021/08/01 09:10:56;;;;;;;4.25;3.28;;;;;;;17.83;84.32;98258.16;4937574;29;20034;-69
2021/08/01 09:13:42;;;;;;;6.13;3.22;;;;;;;17.83;87.97;98263.38;4937317;29;20086;-69
2021/08/01 09:16:08;;;;;;;3.70;3.33;;;;;;;17.94;84.98;98271.53;4937403;29;20592;-69
2021/08/01 09:18:33;;;;;;;7.15;3.50;;;;;;;17.85;83.13;98272.88;4937429;29;20057;-69
2021/08/01 09:20:59;;;;;;;7.13;3.67;;;;;;;17.77;84.93;98268.97;4937329;29;20354;-71
2021/08/01 09:23:24;;;;;;;6.88;4.00;;;;;;;18.00;86.91;98275.56;4937072;29;20148;-69
2021/08/01 09:26:01;;;;;;;7.75;3.42;;;;;;;18.02;82.18;98274.53;4937232;29;20035;-70
2021/08/01 09:28:26;;;;;;;6.07;3.20;;;;;;;18.16;83.85;98274.59;4937304;29;20034;-71
2021/08/01 09:30:59;;;;;;;9.57;3.95;;;;;;;18.45;86.50;98274.72;4936894;29;20401;-70
2021/08/01 09:33:34;;;;;;;3.50;3.17;;;;;;;18.65;85.61;98274.38;4931405;29;20032;-71
2021/08/01 09:36:08;;;;;;;6.82;3.72;;;;;;;18.27;84.65;98278.38;4937129;29;20031;-70
2021/08/01 09:38:51;;;;;;;7.15;3.10;;;;;;;18.59;83.77;98276.53;4936966;29;20028;-71
2021/08/01 09:41:44;;;;;;;4.80;3.67;;;;;;;18.49;82.28;98271.81;4936691;29;20036;-70
2021/08/01 09:44:18;;;;;;;5.03;2.97;;;;;;;18.43;81.16;98274.81;4935679;29;20043;-70
2021/08/01 09:46:46;;;;;;;4.80;3.03;;;;;;;18.28;80.52;98277.47;4937145;29;20059;-69
2021/08/01 09:49:12;;;;;;;4.20;3.80;;;;;;;18.10;81.25;98277.59;4936902;29;20031;-71
2021/08/01 09:51:39;;;;;;;6.38;4.20;;;;;;;18.09;82.99;98270.66;4936312;29;20035;-70
2021/08/01 09:54:05;;;;;;;6.72;3.33;;;;;;;18.38;83.28;98276.00;4936828;29;20434;-70
2021/08/01 09:56:31;;;;;;;8.48;3.60;;;;;;;18.54;81.35;98266.31;4936594;29;20055;-71
2021/08/01 09:58:56;;;;;;;5.05;3.65;;;;;;;18.37;79.90;98269.06;4936697;29;20071;-71
2021/08/01 10:01:21;;;;;;;6.30;3.58;;;;;;;18.60;79.26;98265.94;4936449;29;20020;-71
2021/08/01 10:03:49;;;;;;;3.85;2.83;;;;;;;18.68;80.91;98265.50;4931022;29;20062;-71
2021/08/01 10:06:20;;;;;;;5.70;2.92;;;;;;;19.10;77.89;98256.88;4936374;29;20019;-72
2021/08/01 10:08:53;;;;;;;4.30;2.47;;;;;;;19.67;73.87;98248.94;4936928;29;20447;-72
2021/08/01 10:11:19;;;;;;;3.95;2.67;;;;;;;20.08;75.98;98248.06;4936248;29;20115;-71
2021/08/01 10:13:47;;;;;;;4.57;2.65;;;;;;;19.85;74.66;98248.72;4936168;29;20469;-71
2021/08/01 10:16:13;;;;;;;3.15;2.22;;;;;;;20.09;76.34;98252.38;4936395;29;20076;-72
2021/08/01 10:18:40;;;;;;;6.25;2.33;;;;;;;20.13;72.12;98253.88;4936121;29;20058;-72
2021/08/01 10:21:07;;;;;;;3.58;2.15;;;;;;;19.61;72.69;98251.13;4936046;29;20159;-72
2021/08/01 10:23:41;;;;;;;3.28;2.20;;;;;;;19.61;71.75;98251.97;4935968;29;20028;-71
2021/08/01 10:26:08;;;;;;;3.97;2.40;;;;;;;19.68;75.24;98245.38;4936271;29;20028;-71
2021/08/01 10:28:37;;;;;;;2.03;1.80;;;;;;;19.59;73.76;98248.56;4936032;29;20043;-71
2021/08/01 10:31:04;;;;;;;2.80;1.95;;;;;;;19.24;71.59;98254.25;4935924;29;20037;-72
2021/08/01 10:33:47;;;;;;;4.70;2.08;;;;;;;18.75;74.77;98254.56;4930611;29;20059;-71
2021/08/01 10:36:20;;;;;;;2.92;1.90;;;;;;;18.41;76.27;98250.44;4936042;29;20020;-72
2021/08/01 10:38:48;;;;;;;4.25;2.03;;;;;;;18.52;77.02;98257.69;4936065;29;20030;-70
2021/08/01 10:41:14;;;;;;;2.22;1.77;;;;;;;18.63;75.35;98255.28;4935735;29;20023;-72
2021/08/01 10:43:41;;;;;;;1.98;1.48;;;;;;;18.27;75.04;98258.25;4935563;29;20396;-71
2021/08/01 10:46:08;;;;;;;4.50;1.83;;;;;;;18.43;76.69;98248.56;4936070;29;20102;-70
2021/08/01 10:48:33;;;;;;;2.55;1.80;;;;;;;18.20;76.60;98257.78;4935678;29;20027;-70
2021/08/01 10:50:59;;;;;;;2.25;1.67;;;;;;;18.37;77.72;98253.31;4934279;29;20473;-70
2021/08/01 10:53:26;;;;;;;3.45;1.95;;;;;;;18.84;75.11;98257.59;4935352;29;20032;-72
2021/08/01 10:56:07;;;;;;;1.50;1.40;;;;;;;19.30;75.08;98244.28;4935660;29;20099;-70
2021/08/01 10:58:38;;;;;;;1.92;1.60;;;;;;;19.45;74.26;98245.97;4935502;29;20035;-72
2021/08/01 11:01:06;;;;;;;1.77;1.60;;;;;;;20.11;72.81;98237.34;4935430;29;20114;-73
2021/08/01 11:03:33;;;;;;;2.40;1.60;;;;;;;20.72;66.94;98228.00;4933214;29;20023;-72
2021/08/01 11:05:59;;;;;;;3.25;1.40;;;;;;;20.61;65.69;98234.97;4935396;29;20115;-70
2021/08/01 11:08:26;;;;;;;1.52;1.40;;;;;;;20.71;65.51;98236.88;4935304;29;20191;-70
2021/08/01 11:11:09;;;;;;;2.50;1.80;;;;;;;20.65;66.12;98237.28;4935224;29;20027;-70
2021/08/01 11:13:47;;;;;;;3.53;1.50;;;;;;;20.57;68.02;98239.59;4935232;29;20508;-70
2021/08/01 11:16:32;;;;;;;1.90;1.80;;;;;;;20.82;64.81;98237.91;4935352;29;20024;-70
2021/08/01 11:19:00;;;;;;;6.75;3.95;;;;;;;20.45;65.53;98241.25;4935020;29;20032;-70
2021/08/01 11:21:36;;;;;;;6.72;1.73;;;;;;;20.06;65.30;98239.41;4935016;29;20023;-72
2021/08/01 11:24:10;;;;;;;1.70;1.52;;;;;;;20.45;66.31;98229.84;4935166;29;20023;-70
2021/08/01 11:26:37;;;;;;;2.25;2.05;;;;;;;20.98;64.10;98225.38;4935587;29;20416;-72
2021/08/01 11:29:10;;;;;;;3.00;1.58;;;;;;;21.40;61.15;98228.63;4935144;29;20111;-73
2021/08/01 11:31:38;;;;;;;2.78;1.70;;;;;;;21.24;63.51;98232.31;4933653;29;20020;-71
2021/08/01 11:34:18;;;;;;;1.67;1.48;;;;;;;21.95;60.86;98233.41;4930770;29;20055;-70
2021/08/01 11:36:43;;;;;;;4.25;2.42;;;;;;;21.65;60.53;98236.47;4916016;29;20485;-72
2021/08/01 11:39:08;;;;;;;3.13;1.95;;;;;;;20.40;63.07;98234.56;4916068;29;20036;-70
2021/08/01 11:41:39;;;;;;;4.20;1.90;;;;;;;20.04;64.79;98230.81;4915833;29;20052;-72
2021/08/01 11:44:16;;;;;;;2.97;1.73;;;;;;;21.07;60.87;98224.75;4915821;29;20111;-72
2021/08/01 11:47:07;;;;;;;4.05;1.42;;;;;;;21.04;64.42;98223.19;4916034;29;20032;-72
2021/08/01 11:49:42;;;;;;;2.30;1.48;;;;;;;22.01;61.68;98222.41;4915921;29;20043;-72
2021/08/01 11:52:08;;;;;;;3.60;2.22;;;;;;;21.34;61.39;98219.38;4915410;29;20470;-73
2021/08/01 11:54:35;;;;;;;12.27;7.50;;;;;;;21.38;61.48;98220.84;4916087;29;20040;-72
2021/08/01 11:57:06;;;;;;;7.43;3.88;;;;;;;20.87;64.42;98214.75;4915970;29;20050;-70
2021/08/01 11:59:32;;;;;;;2.83;1.95;;;;;;;21.10;63.22;98216.63;4915774;29;20032;-71
2021/08/01 12:01:59;;;;;;;2.50;1.98;;;;;;;21.16;61.73;98216.19;4919212;29;20075;-70
2021/08/01 12:04:25;;;;;;;2.17;1.98;;;;;;;21.10;64.82;98211.38;4934474;29;20079;-71
2021/08/01 12:06:53;;;;;;;3.60;2.00;;;;;;;22.35;57.61;98209.38;4934569;29;20102;-71
2021/08/01 12:09:31;;;;;;;6.28;2.88;;;;;;;22.26;58.83;98208.25;4934591;29;20485;-72
2021/08/01 12:11:59;;;;;;;7.07;2.38;;;;;;;21.37;61.44;98208.63;4934407;29;20118;-72
2021/08/01 12:14:38;;;;;;;5.80;1.90;;;;;;;21.00;64.08;98210.31;4934678;29;20118;-72
2021/08/01 12:17:09;;;;;;;2.72;1.70;;;;;;;21.46;60.93;98209.72;4938356;29;20038;-72
2021/08/01 12:19:40;;;;;;;2.10;1.40;;;;;;;21.64;62.27;98210.22;4938421;29;20059;-70
2021/08/01 12:22:10;;;;;;;3.05;1.80;;;;;;;21.55;63.91;98214.34;4938077;29;20083;-70
2021/08/01 12:24:50;;;;;;;4.63;2.28;;;;;;;21.97;60.08;98212.19;4938391;29;20050;-70
2021/08/01 12:27:36;;;;;;;3.38;2.00;;;;;;;22.19;60.60;98206.19;4938162;29;20477;-72
2021/08/01 12:30:04;;;;;;;3.08;1.80;;;;;;;22.51;58.00;98203.78;4938288;29;20031;-71
2021/08/01 12:32:35;;;;;;;2.83;1.92;;;;;;;22.32;57.38;98202.50;4932650;29;20028;-71
2021/08/01 12:35:07;;;;;;;2.97;1.90;;;;;;;22.23;58.06;98202.38;4937967;29;20024;-69
2021/08/01 12:38:02;;;;;;;1.92;1.60;;;;;;;22.98;57.66;98194.03;4936771;29;20019;-71
2021/08/01 12:40:45;;;;;;;5.30;2.08;;;;;;;23.06;58.50;98192.47;4935805;29;20023;-70
2021/08/01 12:43:10;;;;;;;3.17;2.05;;;;;;;22.56;58.27;98186.63;4937823;29;20028;-70
2021/08/01 12:45:37;;;;;;;4.43;1.90;;;;;;;23.30;55.31;98189.66;4936470;29;20036;-71
2021/08/01 12:48:04;;;;;;;5.60;1.92;;;;;;;22.76;56.75;98189.53;4935988;29;20771;-71
2021/08/01 12:50:31;;;;;;;3.97;1.98;;;;;;;22.58;56.12;98189.16;4936202;29;20028;-71
2021/08/01 12:52:58;;;;;;;3.92;2.20;;;;;;;22.42;55.53;98196.53;4935575;29;20515;-70
2021/08/01 12:55:24;;;;;;;4.35;2.20;;;;;;;21.85;59.58;98199.88;4935901;29;20036;-70
2021/08/01 12:58:07;;;;;;;3.13;1.90;;;;;;;21.43;61.91;98196.78;4936167;29;20079;-71
2021/08/01 13:00:38;;;;;;;5.40;2.33;;;;;;;21.44;58.82;98193.19;4936915;29;20049;-70
2021/08/01 13:03:10;;;;;;;8.32;1.90;;;;;;;21.04;58.61;98196.00;4932128;29;20030;-69
2021/08/01 13:05:37;;;;;;;7.07;2.25;;;;;;;21.00;60.11;98197.16;4929810;29;20062;-69
2021/08/01 13:08:04;;;;;;;4.20;2.08;;;;;;;20.90;61.00;98204.00;4937488;29;20499;-69
2021/08/01 13:10:45;;;;;;;6.43;2.25;;;;;;;20.88;63.25;98203.25;4937598;29;20027;-69
2021/08/01 13:13:17;;;;;;;4.70;2.15;;;;;;;20.58;63.74;98204.41;4937234;29;20042;-69
2021/08/01 13:15:51;;;;;;;2.75;2.05;;;;;;;20.69;63.01;98195.78;4937538;29;20540;-71
2021/08/01 13:18:34;;;;;;;3.70;2.45;;;;;;;20.96;64.71;98203.56;4937394;29;20023;-71
2021/08/01 13:21:23;;;;;;;5.13;2.08;;;;;;;20.82;64.47;98206.31;4937121;29;20027;-71
2021/08/01 13:23:50;;;;;;;5.80;2.13;;;;;;;20.77;63.22;98201.38;4937162;29;20481;-71
2021/08/01 13:26:29;;;;;;;4.50;2.42;;;;;;;21.11;62.59;98205.13;4936172;29;20078;-72
2021/08/01 13:28:59;;;;;;;5.97;2.72;;;;;;;21.11;63.14;98207.78;4937311;29;20063;-72
2021/08/01 13:31:29;;;;;;;6.97;3.83;;;;;;;21.57;61.59;98204.56;4936922;29;20067;-70
2021/08/01 13:34:01;;;;;;;6.47;2.10;;;;;;;21.92;63.51;98206.41;4931823;29;20027;-72
2021/08/01 13:37:00;;;;;;;3.83;2.10;;;;;;;22.25;60.13;98206.59;4936953;29;20441;-71
2021/08/01 13:39:27;;;;;;;6.88;2.60;;;;;;;21.76;59.92;98204.91;4937167;29;20024;-70
2021/08/01 13:42:09;;;;;;;5.32;2.67;;;;;;;22.16;60.36;98202.00;4936762;29;20028;-70
2021/08/01 13:44:55;;;;;;;2.80;2.38;;;;;;;22.04;61.52;98197.56;4936842;29;20570;-72
2021/08/01 13:47:22;;;;;;;3.42;2.13;;;;;;;22.00;59.05;98202.25;4936113;29;20118;-71
2021/08/01 13:49:55;;;;;;;6.75;2.38;;;;;;;21.66;60.57;98201.25;4936601;29;20059;-72
2021/08/01 13:52:24;;;;;;;5.38;2.20;;;;;;;21.21;64.07;98198.25;4936579;29;20099;-72
2021/08/01 13:54:51;;;;;;;4.78;2.40;;;;;;;20.91;62.06;98196.00;4936595;29;20023;-71
2021/08/01 13:57:17;;;;;;;3.03;1.98;;;;;;;20.86;60.42;98194.63;4936514;29;20062;-70
2021/08/01 13:59:43;;;;;;;5.05;3.08;;;;;;;20.87;62.52;98196.31;4936985;29;20040;-70
2021/08/01 14:02:08;;;;;;;4.03;2.53;;;;;;;20.88;64.79;98195.34;4931259;29;20032;-71
2021/08/01 14:04:35;;;;;;;3.17;1.95;;;;;;;20.79;61.12;98197.69;4936112;29;20478;-69
2021/08/01 14:07:00;;;;;;;3.25;2.22;;;;;;;20.72;62.94;98191.16;4936320;29;20496;-70
2021/08/01 14:09:25;;;;;;;6.60;2.22;;;;;;;20.88;61.94;98174.28;4936399;29;20035;-69
2021/08/01 14:11:51;;;;;;;3.97;2.50;;;;;;;21.08;63.27;98180.78;4935971;29;20027;-70
2021/08/01 14:14:21;;;;;;;5.57;2.75;;;;;;;21.21;61.41;98182.47;4936199;29;20086;-71
2021/08/01 14:16:47;;;;;;;3.60;2.35;;;;;;;21.07;60.79;98173.84;4936197;29;20027;-71
2021/08/01 14:19:13;;;;;;;3.60;2.45;;;;;;;21.10;63.70;98185.00;4936208;29;20049;-71
2021/08/01 14:21:38;;;;;;;3.92;2.40;;;;;;;21.36;61.65;98182.34;4935917;29;20466;-71
2021/08/01 14:24:04;;;;;;;6.68;2.60;;;;;;;21.23;61.75;98185.84;4936083;29;20054;-71
2021/08/01 14:26:36;;;;;;;6.50;3.78;;;;;;;20.96;61.81;98177.25;4935979;29;20074;-71
2021/08/01 14:29:03;;;;;;;3.78;2.50;;;;;;;20.81;65.16;98180.94;4935999;29;20027;-71
2021/08/01 14:31:30;;;;;;;3.80;2.40;;;;;;;20.87;63.41;98177.88;4935813;29;20047;-71
2021/08/01 14:33:58;;;;;;;7.65;2.50;;;;;;;20.56;63.51;98174.72;4930456;29;20556;-71
2021/08/01 14:36:24;;;;;;;3.30;2.13;;;;;;;20.14;64.29;98176.63;4935905;29;20042;-71
2021/08/01 14:38:50;;;;;;;3.67;2.15;;;;;;;20.05;64.58;98166.72;4935787;29;20264;-71
2021/08/01 14:41:17;;;;;;;4.47;2.35;;;;;;;20.55;64.01;98167.78;4935644;29;20087;-72
2021/08/01 14:43:43;;;;;;;4.85;2.30;;;;;;;20.75;63.14;98180.41;4935849;29;20031;-71
2021/08/01 14:46:09;;;;;;;3.78;1.95;;;;;;;20.29;62.81;98175.59;4935908;29;20044;-69
2021/08/01 14:48:37;;;;;;;3.88;1.95;;;;;;;20.13;64.17;98182.84;4935754;29;20031;-70
2021/08/01 14:51:11;;;;;;;3.10;2.20;;;;;;;20.43;64.45;98179.09;4935445;29;20102;-70
2021/08/01 14:53:36;;;;;;;4.43;2.08;;;;;;;20.41;63.82;98186.28;4935515;29;20027;-69
2021/08/01 14:56:02;;;;;;;1.98;1.70;;;;;;;20.38;61.90;98186.47;4935584;29;20491;-71
2021/08/01 14:58:30;;;;;;;10.90;6.28;;;;;;;20.25;63.52;98196.97;4935450;29;20031;-71
2021/08/01 15:01:05;;;;;;;4.10;2.42;;;;;;;19.92;62.90;98206.16;4935590;29;20055;-71
2021/08/01 15:03:40;;;;;;;2.08;1.88;;;;;;;19.65;63.60;98202.69;4929855;29;20023;-71
2021/08/01 15:06:06;;;;;;;4.15;1.90;;;;;;;19.56;65.62;98214.59;4935371;29;20032;-71
2021/08/01 15:08:47;;;;;;;1.92;1.70;;;;;;;19.53;65.08;98209.50;4935629;29;20114;-71
2021/08/01 15:11:17;;;;;;;1.85;1.67;;;;;;;19.41;64.05;98215.56;4935059;29;20111;-70
2021/08/01 15:13:59;;;;;;;2.80;1.98;;;;;;;19.50;64.48;98209.72;4935047;29;20039;-71
2021/08/01 15:16:28;;;;;;;2.58;1.63;;;;;;;19.73;64.32;98222.28;4935351;29;20371;-71
2021/08/01 15:19:03;;;;;;;2.35;1.83;;;;;;;19.44;65.18;98223.25;4935013;29;20606;-71
2021/08/01 15:21:38;;;;;;;5.65;2.55;;;;;;;19.29;65.31;98221.56;4935048;29;20111;-69
2021/08/01 15:24:14;;;;;;;1.92;1.77;;;;;;;19.42;66.19;98225.97;4935060;29;20023;-69
2021/08/01 15:26:40;;;;;;;5.88;1.85;;;;;;;19.46;65.99;98229.25;4935113;29;20051;-70
2021/08/01 15:29:05;;;;;;;2.10;1.80;;;;;;;19.51;66.47;98237.69;4935079;29;20032;-71
2021/08/01 15:31:34;;;;;;;6.55;2.17;;;;;;;19.32;66.63;98237.16;4934458;29;20083;-71
2021/08/01 15:33:59;;;;;;;4.30;2.33;;;;;;;19.37;68.50;98256.09;4930127;29;20477;-71
2021/08/01 15:36:26;;;;;;;3.85;2.05;;;;;;;19.29;68.21;98253.09;4934821;29;20027;-71
2021/08/01 15:38:52;;;;;;;5.90;1.98;;;;;;;19.07;68.86;98253.56;4935006;29;20039;-71
2021/08/01 15:41:18;;;;;;;4.70;2.33;;;;;;;18.94;69.88;98258.72;4934707;29;20031;-71
2021/08/01 15:43:45;;;;;;;3.97;2.22;;;;;;;18.67;70.28;98255.94;4934794;29;20035;-71
2021/08/01 15:46:10;;;;;;;3.78;2.22;;;;;;;18.68;71.79;98263.75;4934795;29;20115;-70
2021/08/01 15:48:37;;;;;;;2.47;1.90;;;;;;;18.53;70.58;98275.13;4934978;29;20102;-71
2021/08/01 15:51:06;;;;;;;9.30;5.72;;;;;;;18.76;70.04;98268.56;4934291;29;20079;-71
2021/08/01 15:53:54;;;;;;;4.75;1.95;;;;;;;18.68;66.82;98263.75;4934775;29;20495;-71
2021/08/01 15:56:22;;;;;;;3.58;1.88;;;;;;;19.02;66.23;98256.47;4934591;29;20106;-71
2021/08/01 15:59:05;;;;;;;5.35;1.40;;;;;;;19.00;64.91;98255.72;4934811;29;20038;-71
2021/08/01 16:01:39;;;;;;;5.65;3.60;;;;;;;19.00;64.99;98266.22;4934393;29;20037;-71
2021/08/01 16:04:35;;;;;;;2.00;1.90;;;;;;;18.98;64.43;98266.31;4930590;29;20027;-71
2021/08/01 16:07:04;;;;;;;4.03;1.85;;;;;;;19.27;64.32;98267.16;4915683;29;20060;-71
2021/08/01 16:10:03;;;;;;;7.22;4.28;;;;;;;19.38;64.83;98263.88;4915857;29;20028;-71
2021/08/01 16:12:32;;;;;;;;;;;;;;;19.30;65.02;98270.56;4915835;29;20032;-71
2021/08/01 16:15:08;;;;;;;3.55;1.70;;;;;;;19.40;64.23;98266.41;4915489;29;19954;-71
2021/08/01 16:17:51;;;;;;;1.90;1.70;;;;;;;19.31;64.51;98261.72;4915744;29;20120;-71
2021/08/01 16:20:18;;;;;;;3.80;2.28;;;;;;;18.99;63.63;98265.38;4915933;29;20466;-69
2021/08/01 16:22:50;;;;;;;2.00;1.50;;;;;;;19.30;64.35;98262.69;4915416;29;20028;-69
2021/08/01 16:25:16;;;;;;;1.85;1.40;;;;;;;19.31;62.70;98267.84;4915402;29;20516;-69
2021/08/01 16:27:43;;;;;;;4.38;1.67;;;;;;;18.87;61.92;98267.91;4915476;29;20047;-69
2021/08/01 16:30:10;;;;;;;1.73;1.20;;;;;;;18.84;62.45;98263.69;4915461;29;20035;-69
2021/08/01 16:32:37;;;;;;;3.22;1.05;;;;;;;18.94;61.87;98261.34;4923909;29;20020;-69
2021/08/01 16:35:05;;;;;;;1.40;1.30;;;;;;;18.89;61.35;98258.16;4934292;29;20153;-71
2021/08/01 16:37:30;;;;;;;3.55;1.80;;;;;;;18.83;62.34;98269.03;4934317;29;20075;-71
2021/08/01 16:39:56;;;;;;;2.45;1.77;;;;;;;19.30;61.51;98270.56;4934310;29;20020;-69
2021/08/01 16:42:23;;;;;;;1.30;1.20;;;;;;;19.52;62.68;98263.00;4934419;29;20362;-70
2021/08/01 16:45:02;;;;;;;1.98;1.08;;;;;;;19.56;60.38;98264.50;4934358;29;20031;-71
2021/08/01 16:47:46;;;;;;;4.80;2.80;;;;;;;19.51;62.11;98263.97;4934221;29;20678;-70
2021/08/01 16:50:15;;;;;;;5.05;0.90;;;;;;;19.12;59.83;98273.38;4934233;29;20042;-71
2021/08/01 16:53:09;;;;;;;1.05;0.85;;;;;;;18.57;61.91;98281.88;4934008;29;20039;-70
2021/08/01 16:55:50;;;;;;;1.88;1.02;;;;;;;18.41;62.96;98283.69;4934476;29;20035;-71
2021/08/01 16:58:28;;;;;;;2.65;1.20;;;;;;;18.47;65.03;98285.97;4934173;29;20035;-70
2021/08/01 17:00:59;;;;;;;2.78;1.20;;;;;;;18.79;61.10;98285.88;4934183;29;20031;-71
2021/08/01 17:03:48;;;;;;;2.13;1.13;;;;;;;18.94;62.92;98291.06;4931432;29;20135;-69
2021/08/01 17:06:42;;;;;;;1.90;1.13;;;;;;;19.04;61.80;98291.34;4937631;29;20507;-72
2021/08/01 17:09:24;;;;;;;2.58;1.30;;;;;;;19.19;62.83;98290.41;4937512;29;20031;-70
2021/08/01 17:12:05;;;;;;;4.00;1.20;;;;;;;18.87;62.14;98297.63;4937498;29;20035;-72
2021/08/01 17:14:31;;;;;;;2.15;1.30;;;;;;;18.80;63.36;98305.94;4937308;29;20039;-71
2021/08/01 17:16:57;;;;;;;1.48;1.15;;;;;;;18.69;63.00;98306.59;4932479;29;20032;-71
2021/08/01 17:19:24;;;;;;;1.33;1.08;;;;;;;18.39;62.62;98301.31;4929652;29;20074;-71
2021/08/01 17:21:50;;;;;;;1.08;1.08;;;;;;;18.38;65.82;98307.50;4918705;29;20087;-69
2021/08/01 17:24:16;;;;;;;0.82;0.80;;;;;;;18.34;63.86;98317.31;4929137;29;20114;-71
2021/08/01 17:26:41;;;;;;;1.15;1.08;;;;;;;18.37;63.86;98322.38;4931911;29;20110;-69
2021/08/01 17:29:07;;;;;;;2.47;1.08;;;;;;;18.40;62.35;98322.19;4933230;29;20110;-69
2021/08/01 17:31:38;;;;;;;4.07;2.35;;;;;;;18.48;62.72;98319.16;4936564;29;20414;-71
2021/08/01 17:34:06;;;;;;;1.27;1.13;;;;;;;18.66;63.18;98322.47;4936896;29;20029;-70
2021/08/01 17:36:39;;;;;;;2.33;1.17;;;;;;;18.74;63.01;98318.50;4937022;29;20047;-70
2021/08/01 17:39:06;;;;;;;1.00;1.00;;;;;;;18.86;61.82;98329.22;4936865;29;20034;-70
2021/08/01 17:41:35;;;;;;;1.40;1.13;;;;;;;19.14;62.71;98329.25;4936632;29;20042;-69
2021/08/01 17:44:02;;;;;;;1.75;1.15;;;;;;;19.16;61.31;98327.41;4936671;29;20099;-70
2021/08/01 17:46:31;;;;;;;2.47;0.98;;;;;;;19.03;61.96;98331.69;4936716;29;20071;-71
2021/08/01 17:48:59;;;;;;;1.30;1.20;;;;;;;18.62;61.29;98334.09;4936667;29;20390;-69
2021/08/01 17:51:24;;;;;;;1.30;1.20;;;;;;;18.43;63.27;98331.69;4922810;29;20461;-69
2021/08/01 17:53:49;;;;;;;1.60;1.13;;;;;;;18.27;62.94;98336.09;4931524;29;20025;-71
2021/08/01 17:56:15;;;;;;;1.13;0.80;;;;;;;18.29;61.94;98329.84;4936527;29;20019;-71
2021/08/01 17:58:42;;;;;;;1.20;1.00;;;;;;;18.27;64.63;98330.84;4936450;29;20024;-69
2021/08/01 18:01:07;;;;;;;2.53;1.27;;;;;;;18.17;62.10;98328.72;4936266;29;20034;-72
2021/08/01 18:03:34;;;;;;;3.58;1.10;;;;;;;18.42;63.08;98332.59;4931001;29;20048;-70
2021/08/01 18:06:02;;;;;;;1.70;0.98;;;;;;;18.68;61.63;98331.09;4936289;29;20055;-70
2021/08/01 18:08:52;;;;;;;2.38;0.90;;;;;;;18.63;62.75;98323.50;4936238;29;20231;-69
2021/08/01 18:11:18;;;;;;;5.47;1.17;;;;;;;18.56;63.31;98324.78;4936083;29;20164;-69
2021/08/01 18:14:04;;;;;;;4.22;0.82;;;;;;;18.60;62.31;98323.66;4935605;29;20028;-71
2021/08/01 18:16:30;;;;;;;1.50;0.90;;;;;;;18.80;62.58;98326.94;4936295;29;20032;-70
2021/08/01 18:19:04;;;;;;;1.55;0.90;;;;;;;18.94;62.39;98327.81;4936149;29;20083;-71
2021/08/01 18:21:33;;;;;;;9.02;7.43;;;;;;;18.85;61.32;98333.59;4921217;29;20024;-69
2021/08/01 18:24:03;;;;;;;3.30;1.02;;;;;;;18.73;61.29;98335.19;4936079;29;20071;-70
2021/08/01 18:26:29;;;;;;;;;;;;;;;18.53;64.72;98343.34;4936340;29;20024;-71
2021/08/01 18:29:07;;;;;;;1.02;0.90;;;;;;;18.23;62.34;98340.69;4936209;29;19911;-71
2021/08/01 18:31:33;;;;;;;2.53;1.20;;;;;;;17.90;63.92;98338.16;4935681;29;20043;-69
2021/08/01 18:34:02;;;;;;;2.05;1.48;;;;;;;18.04;64.67;98351.34;4935764;29;20028;-71
2021/08/01 18:36:27;;;;;;;2.40;1.00;;;;;;;17.92;66.46;98347.59;4935734;29;20016;-69
2021/08/01 18:38:53;;;;;;;1.70;1.20;;;;;;;17.61;66.26;98343.16;4935830;29;20033;-69
2021/08/01 18:41:25;;;;;;;2.20;1.30;;;;;;;17.58;67.35;98353.78;4934032;29;20031;-70
2021/08/01 18:43:52;;;;;;;1.45;1.35;;;;;;;17.39;68.45;98358.31;4929986;29;20020;-71
2021/08/01 18:46:19;;;;;;;22.00;13.40;;;;;;;17.24;68.31;98359.09;4935640;29;20143;-71
2021/08/01 18:48:45;;;;;;;1.77;1.60;;;;;;;17.15;68.66;98366.50;4935554;29;20066;-70